Xi'an, China
Current Conditions -  °F | °C
As of 10:00 PM on Thursday 30 Oct 2014 (Local Time) from ZLXY Reporting Station
Haze Haze  
Wind Chill: 54°   Ceiling: 6000
Heat Index: 54°   Visibility: 1.5mi
Dew Point: 50°   Wind: 2mph
Humidity: 88%   Direction: NA
Pressure: 30.15"   Gusts: NA
Location:  34.3°N, 108.93°E
Report Text: ZLXY 301400Z VRB01MPS 2500 BR OVC060 12/10 Q1021 NOSIG
Loading
Personal Weather Stations






























Interactive Weather Map
Tropical Storm Tracking
New forecast layout! Learn more

10-Day Weather Forecast

Advertisements
Track Severe Weather on mobile